createdAt,value
2022-07-30T00:01:18.126Z,50.52
2022-07-30T00:03:45.175Z,51.05
2022-07-30T00:06:12.147Z,51.96
2022-07-30T00:08:39.116Z,51.87
2022-07-30T00:11:06.166Z,51.78
2022-07-30T00:13:33.122Z,51.88
2022-07-30T00:16:00.110Z,52.00
2022-07-30T00:18:27.059Z,51.76
2022-07-30T00:20:53.996Z,52.24
2022-07-30T00:23:23.409Z,51.45
2022-07-30T00:25:50.380Z,51.71
2022-07-30T00:28:17.320Z,51.60
2022-07-30T00:30:44.338Z,51.29
2022-07-30T00:33:11.310Z,51.29
2022-07-30T00:35:39.680Z,51.38
2022-07-30T00:38:06.664Z,50.96
2022-07-30T00:40:33.701Z,51.18
2022-07-30T00:43:00.682Z,51.03
2022-07-30T00:45:28.022Z,51.32
2022-07-30T00:47:55.027Z,51.80
2022-07-30T00:50:21.992Z,51.75
2022-07-30T00:52:49.320Z,51.24
2022-07-30T00:55:16.322Z,51.10
2022-07-30T00:57:44.564Z,51.73
2022-07-30T01:00:16.559Z,51.10
2022-07-30T01:02:43.880Z,51.21
2022-07-30T01:05:11.506Z,52.06
2022-07-30T01:07:38.560Z,52.24
2022-07-30T01:10:07.986Z,51.53
2022-07-30T01:12:35.275Z,51.81
2022-07-30T01:15:06.193Z,51.20
2022-07-30T01:17:34.365Z,51.84
2022-07-30T01:20:11.177Z,51.06
2022-07-30T01:22:53.024Z,50.26
2022-07-30T01:25:32.107Z,51.06
2022-07-30T01:28:08.920Z,50.96
2022-07-30T01:30:40.908Z,51.70
2022-07-30T01:33:12.505Z,51.03
2022-07-30T01:35:41.904Z,51.19
2022-07-30T01:38:11.342Z,51.15
2022-07-30T01:40:39.667Z,51.37
2022-07-30T01:43:08.084Z,52.41
2022-07-30T01:45:42.136Z,51.51
2022-07-30T01:48:14.693Z,52.10
2022-07-30T01:50:54.752Z,50.89
2022-07-30T01:53:27.007Z,51.56
2022-07-30T01:55:56.014Z,52.39
2022-07-30T01:58:29.567Z,51.92
2022-07-30T02:01:04.489Z,55.18
2022-07-30T02:03:32.717Z,56.31
2022-07-30T02:06:17.725Z,55.27
2022-07-30T02:08:58.579Z,59.13
2022-07-30T02:11:45.866Z,60.49
2022-07-30T02:14:27.833Z,57.15
2022-07-30T02:16:58.966Z,58.40
2022-07-30T02:19:36.629Z,55.55
2022-07-30T02:22:12.871Z,54.66
2022-07-30T02:24:43.777Z,55.29
2022-07-30T02:27:18.016Z,56.08
2022-07-30T02:29:47.384Z,57.73
2022-07-30T02:32:20.179Z,58.40
2022-07-30T02:34:53.405Z,59.50
2022-07-30T02:37:42.948Z,58.57
2022-07-30T02:40:15.632Z,59.22
2022-07-30T02:42:46.802Z,58.48
2022-07-30T02:45:17.819Z,59.56
2022-07-30T02:47:53.569Z,58.40
2022-07-30T02:50:23.064Z,59.80
2022-07-30T02:52:51.743Z,62.29
2022-07-30T02:55:19.908Z,60.54
2022-07-30T02:57:49.097Z,62.38
2022-07-30T03:00:16.875Z,64.14
2022-07-30T03:02:46.134Z,64.24
2022-07-30T03:05:15.639Z,66.17
2022-07-30T03:07:44.305Z,66.42
2022-07-30T03:10:13.103Z,63.98
2022-07-30T03:12:44.310Z,64.72
2022-07-30T03:15:14.001Z,61.97
2022-07-30T03:17:46.280Z,61.95
2022-07-30T03:20:25.815Z,62.70
2022-07-30T03:22:55.924Z,62.99
2022-07-30T03:25:31.940Z,65.15
2022-07-30T03:28:03.910Z,66.03
2022-07-30T03:30:33.419Z,67.50
2022-07-30T03:33:01.095Z,67.86
2022-07-30T03:35:30.450Z,67.99
2022-07-30T03:38:00.312Z,66.71
2022-07-30T03:40:28.628Z,68.36
2022-07-30T03:42:56.301Z,68.44
2022-07-30T03:45:25.352Z,69.57
2022-07-30T03:47:57.362Z,69.89
2022-07-30T03:50:24.848Z,68.94
2022-07-30T03:52:53.126Z,66.74
2022-07-30T03:55:21.828Z,67.45
2022-07-30T03:57:48.935Z,63.99
2022-07-30T04:00:18.154Z,65.37
2022-07-30T04:02:49.869Z,66.83
2022-07-30T04:05:37.759Z,64.18
2022-07-30T04:08:08.744Z,65.37
2022-07-30T04:10:35.942Z,66.25
2022-07-30T04:13:31.705Z,65.97
2022-07-30T04:16:39.113Z,65.18
2022-07-30T04:19:03.657Z,66.35
2022-07-30T04:21:33.445Z,65.26
2022-07-30T04:24:05.587Z,66.33
2022-07-30T04:26:37.024Z,66.59
2022-07-30T04:29:08.168Z,66.31
2022-07-30T04:31:40.968Z,67.64
2022-07-30T04:34:26.835Z,67.53
2022-07-30T04:36:54.065Z,67.04
2022-07-30T04:39:21.147Z,66.22
2022-07-30T04:41:50.035Z,66.22
2022-07-30T04:44:43.682Z,66.24
2022-07-30T04:47:20.527Z,65.48
2022-07-30T04:50:00.900Z,65.25
2022-07-30T04:52:28.319Z,65.70
2022-07-30T04:55:02.723Z,65.06
2022-07-30T04:57:31.629Z,65.54
2022-07-30T04:59:59.019Z,65.35
2022-07-30T05:02:29.789Z,65.92
2022-07-30T05:04:58.270Z,66.57
2022-07-30T05:07:28.676Z,65.11
2022-07-30T05:09:55.783Z,63.97
2022-07-30T05:12:38.541Z,63.56
2022-07-30T05:15:09.739Z,62.80
2022-07-30T05:17:37.947Z,63.68
2022-07-30T05:20:08.569Z,63.38
2022-07-30T05:23:04.368Z,63.36
2022-07-30T05:25:31.490Z,62.84
2022-07-30T05:28:11.307Z,63.11
2022-07-30T05:30:38.416Z,63.95
2022-07-30T05:33:13.351Z,63.71
2022-07-30T05:35:43.134Z,63.03
2022-07-30T05:38:10.166Z,62.86
2022-07-30T05:40:50.686Z,63.41
2022-07-30T05:43:43.774Z,63.35
2022-07-30T05:46:10.909Z,62.95
2022-07-30T05:48:38.671Z,62.73
2022-07-30T05:51:06.107Z,62.71
2022-07-30T05:53:33.218Z,61.83
2022-07-30T05:56:26.660Z,62.08
2022-07-30T05:59:04.142Z,61.87
2022-07-30T06:01:51.136Z,62.92
2022-07-30T06:04:24.275Z,62.12
2022-07-30T06:06:58.621Z,62.36
2022-07-30T06:09:32.930Z,62.32
2022-07-30T06:12:05.272Z,61.66
2022-07-30T06:14:32.512Z,61.69
2022-07-30T06:17:00.109Z,61.24
2022-07-30T06:19:33.118Z,60.94
2022-07-30T06:22:06.177Z,61.25
2022-07-30T06:24:39.108Z,60.99
2022-07-30T06:27:11.443Z,60.85
2022-07-30T06:29:39.225Z,60.70
2022-07-30T06:32:06.503Z,60.96
2022-07-30T06:34:33.513Z,60.73
2022-07-30T06:37:00.861Z,60.71
2022-07-30T06:39:57.863Z,60.11
2022-07-30T06:42:38.859Z,59.74
2022-07-30T06:45:34.769Z,59.46
2022-07-30T06:48:16.599Z,59.38
2022-07-30T06:50:43.995Z,58.94
2022-07-30T06:53:11.545Z,58.90
2022-07-30T06:56:00.177Z,58.54
2022-07-30T06:58:33.784Z,58.52
2022-07-30T07:01:24.870Z,58.53
2022-07-30T07:03:52.833Z,58.28
2022-07-30T07:06:19.959Z,58.38
2022-07-30T07:08:46.987Z,57.82
2022-07-30T07:11:18.000Z,58.22
2022-07-30T07:13:49.463Z,58.09
2022-07-30T07:16:27.319Z,58.29
2022-07-30T07:18:55.874Z,58.47
2022-07-30T07:21:23.463Z,58.26
2022-07-30T07:23:52.511Z,57.76
2022-07-30T07:26:37.941Z,56.60
2022-07-30T07:29:05.435Z,56.65
2022-07-30T07:32:06.962Z,56.73
2022-07-30T07:34:21.031Z,55.37
2022-07-30T07:36:48.786Z,55.64
2022-07-30T07:39:15.962Z,55.70
2022-07-30T07:41:48.213Z,54.25
2022-07-30T07:44:17.353Z,54.64
2022-07-30T07:46:44.402Z,55.36
2022-07-30T07:49:11.478Z,55.44
2022-07-30T07:51:47.495Z,55.96
2022-07-30T07:54:23.300Z,55.10
2022-07-30T07:56:53.254Z,55.13
2022-07-30T07:59:28.371Z,54.98
2022-07-30T08:02:04.131Z,55.36
2022-07-30T08:04:49.904Z,55.47
2022-07-30T08:07:34.859Z,54.59
2022-07-30T08:10:27.811Z,54.31
2022-07-30T08:13:49.256Z,52.73
2022-07-30T08:16:32.050Z,52.01
2022-07-30T08:19:20.824Z,52.32
2022-07-30T08:21:56.156Z,52.72
2022-07-30T08:24:23.168Z,52.78
2022-07-30T08:26:50.197Z,52.76
2022-07-30T08:29:17.499Z,53.23
2022-07-30T08:31:45.438Z,52.32
2022-07-30T08:34:13.440Z,50.57
2022-07-30T08:36:40.895Z,51.18
2022-07-30T08:39:08.702Z,51.01
2022-07-30T08:41:38.658Z,51.04
2022-07-30T08:44:12.658Z,50.88
2022-07-30T08:46:49.424Z,50.32
2022-07-30T08:49:32.616Z,50.50
2022-07-30T08:52:00.136Z,49.61
2022-07-30T08:54:40.728Z,50.25
2022-07-30T08:57:07.861Z,48.72
2022-07-30T08:59:59.907Z,49.22
2022-07-30T09:02:29.937Z,48.99
2022-07-30T09:05:03.507Z,48.88
2022-07-30T09:07:33.611Z,48.31
2022-07-30T09:10:02.001Z,47.76
2022-07-30T09:12:42.819Z,49.21
2022-07-30T09:15:20.295Z,47.64
2022-07-30T09:18:02.746Z,48.17
2022-07-30T09:20:36.621Z,48.53
2022-07-30T09:23:07.796Z,48.51
2022-07-30T09:26:04.203Z,49.09
2022-07-30T09:28:46.514Z,47.53
2022-07-30T09:31:13.764Z,45.51
2022-07-30T09:33:59.190Z,47.50
2022-07-30T09:37:08.591Z,45.80
2022-07-30T09:40:10.510Z,45.86
2022-07-30T09:43:08.901Z,46.33
2022-07-30T09:45:57.159Z,46.36
2022-07-30T09:48:27.696Z,46.00
2022-07-30T09:50:57.553Z,46.51
2022-07-30T09:53:25.087Z,46.33
2022-07-30T09:55:52.624Z,43.64
2022-07-30T09:58:27.222Z,43.92
2022-07-30T10:00:59.341Z,41.35
2022-07-30T10:03:46.513Z,43.76
2022-07-30T10:06:35.292Z,44.09
2022-07-30T10:09:13.631Z,44.65
2022-07-30T10:11:41.599Z,43.47
2022-07-30T10:14:09.722Z,44.09
2022-07-30T10:16:36.952Z,43.67
2022-07-30T10:19:07.112Z,44.23
2022-07-30T10:22:00.480Z,44.01
2022-07-30T10:24:51.903Z,43.07
2022-07-30T10:27:20.363Z,40.26
2022-07-30T10:29:59.516Z,40.79
2022-07-30T10:32:32.214Z,41.04
2022-07-30T10:35:00.892Z,41.19
2022-07-30T10:37:31.809Z,40.20
2022-07-30T10:40:07.414Z,40.76
2022-07-30T10:43:03.102Z,40.37
2022-07-30T10:45:37.108Z,38.85
2022-07-30T10:48:12.721Z,40.20
2022-07-30T10:50:59.829Z,40.77
2022-07-30T10:53:46.636Z,37.40
2022-07-30T10:56:25.536Z,37.60
2022-07-30T10:59:10.686Z,37.58
2022-07-30T11:02:00.938Z,37.41
2022-07-30T11:04:30.544Z,38.91
2022-07-30T11:07:23.911Z,39.89
2022-07-30T11:10:09.193Z,38.57
2022-07-30T11:12:44.111Z,39.81
2022-07-30T11:15:19.135Z,39.02
2022-07-30T11:18:12.025Z,38.14
2022-07-30T11:20:40.802Z,37.94
2022-07-30T11:23:20.046Z,36.76
2022-07-30T11:25:51.102Z,36.76
2022-07-30T11:28:42.001Z,35.20
2022-07-30T11:31:56.656Z,35.27
2022-07-30T11:34:25.930Z,34.92
2022-07-30T11:37:18.390Z,35.70
2022-07-30T11:39:58.163Z,34.02
2022-07-30T11:42:34.459Z,36.09
2022-07-30T11:45:16.629Z,34.94
2022-07-30T11:47:45.436Z,35.43
2022-07-30T11:50:28.963Z,36.49
2022-07-30T11:53:03.542Z,35.43
2022-07-30T11:55:35.095Z,35.24
2022-07-30T11:58:06.642Z,33.92
2022-07-30T12:00:40.319Z,34.62
2022-07-30T12:03:12.761Z,34.12
2022-07-30T12:05:40.692Z,33.95
2022-07-30T12:08:08.539Z,33.35
2022-07-30T12:11:00.770Z,35.37
2022-07-30T12:13:45.477Z,35.31
2022-07-30T12:16:17.498Z,35.47
2022-07-30T12:18:48.850Z,34.44
2022-07-30T12:21:16.872Z,35.26
2022-07-30T12:23:55.211Z,34.67
2022-07-30T12:26:32.057Z,34.56
2022-07-30T12:29:04.788Z,34.01
2022-07-30T12:31:33.576Z,35.16
2022-07-30T12:34:00.844Z,35.22
2022-07-30T12:36:33.020Z,34.56
2022-07-30T12:39:04.912Z,32.72
2022-07-30T12:41:49.389Z,32.37
2022-07-30T12:44:42.109Z,31.60
2022-07-30T12:47:23.886Z,30.96
2022-07-30T12:49:56.073Z,31.17
2022-07-30T12:52:34.805Z,30.83
2022-07-30T12:55:12.645Z,29.93
2022-07-30T12:58:00.756Z,32.08
2022-07-30T13:00:54.771Z,33.32
2022-07-30T13:03:28.205Z,33.71
2022-07-30T13:05:56.795Z,34.02
2022-07-30T13:08:53.655Z,34.77
2022-07-30T13:11:24.827Z,32.84
2022-07-30T13:13:52.450Z,32.16
2022-07-30T13:16:20.758Z,30.60
2022-07-30T13:18:48.214Z,31.77
2022-07-30T13:21:16.090Z,31.84
2022-07-30T13:23:43.134Z,31.39
2022-07-30T13:26:10.911Z,31.00
2022-07-30T13:28:38.196Z,31.93
2022-07-30T13:31:05.546Z,31.95
2022-07-30T13:33:32.711Z,29.21
2022-07-30T13:35:59.659Z,30.80
2022-07-30T13:38:27.525Z,31.74
2022-07-30T13:40:59.067Z,31.93
2022-07-30T13:43:29.045Z,32.24
2022-07-30T13:45:59.988Z,31.56
2022-07-30T13:48:27.819Z,30.80
2022-07-30T13:50:54.978Z,31.68
2022-07-30T13:53:22.058Z,30.00
2022-07-30T13:55:49.185Z,30.36
2022-07-30T13:58:16.148Z,30.91
2022-07-30T14:00:45.101Z,30.66
2022-07-30T14:03:12.635Z,27.22
2022-07-30T14:05:42.264Z,28.49
2022-07-30T14:08:11.752Z,29.60
2022-07-30T14:10:40.232Z,29.78
2022-07-30T14:13:10.253Z,29.92
2022-07-30T14:15:41.355Z,29.98
2022-07-30T14:18:08.369Z,29.64
2022-07-30T14:20:35.352Z,29.44
2022-07-30T14:23:02.650Z,29.18
2022-07-30T14:25:29.736Z,29.27
2022-07-30T14:27:56.723Z,28.70
2022-07-30T14:30:24.638Z,29.54
2022-07-30T14:32:58.301Z,29.38
2022-07-30T14:35:27.472Z,29.68
2022-07-30T14:37:54.491Z,29.21
2022-07-30T14:40:21.726Z,29.41
2022-07-30T14:42:48.746Z,28.23
2022-07-30T14:45:16.020Z,28.73
2022-07-30T14:47:43.097Z,29.03
2022-07-30T14:50:10.172Z,28.67
2022-07-30T14:52:38.722Z,28.47
2022-07-30T14:55:09.416Z,28.44
2022-07-30T14:57:36.625Z,28.55
2022-07-30T15:00:07.542Z,27.96
2022-07-30T15:02:35.232Z,27.37
2022-07-30T15:05:30.302Z,28.60
2022-07-30T15:08:00.229Z,28.95
2022-07-30T15:10:27.351Z,28.12
2022-07-30T15:12:55.010Z,28.94
2022-07-30T15:15:22.525Z,28.87
2022-07-30T15:17:51.028Z,28.34
2022-07-30T15:20:18.993Z,29.05
2022-07-30T15:22:46.143Z,28.42
2022-07-30T15:25:13.187Z,27.48
2022-07-30T15:27:40.191Z,27.43
2022-07-30T15:30:08.022Z,27.04
2022-07-30T15:32:35.253Z,26.84
2022-07-30T15:35:02.238Z,27.40
2022-07-30T15:37:29.259Z,27.63
2022-07-30T15:39:56.262Z,26.89
2022-07-30T15:42:23.664Z,27.03
2022-07-30T15:45:14.257Z,27.38
2022-07-30T15:47:37.776Z,26.96
2022-07-30T15:50:05.833Z,27.64
2022-07-30T15:52:32.928Z,27.43
2022-07-30T15:55:00.112Z,26.40
2022-07-30T15:57:27.159Z,27.27
2022-07-30T15:59:54.140Z,26.68
2022-07-30T16:02:21.186Z,26.13
2022-07-30T16:04:48.400Z,26.36
2022-07-30T16:07:15.458Z,26.23
2022-07-30T16:09:42.649Z,26.77
2022-07-30T16:12:09.613Z,26.56
2022-07-30T16:14:36.779Z,26.62
2022-07-30T16:17:03.748Z,25.91
2022-07-30T16:19:30.723Z,25.04
2022-07-30T16:21:57.848Z,24.93
2022-07-30T16:24:24.858Z,25.31
2022-07-30T16:26:51.808Z,25.20
2022-07-30T16:29:18.866Z,25.17
2022-07-30T16:31:46.834Z,25.41
2022-07-30T16:34:13.949Z,25.25
2022-07-30T16:36:40.924Z,25.40
2022-07-30T16:39:09.225Z,26.24
2022-07-30T16:41:36.878Z,25.84
2022-07-30T16:44:04.866Z,26.32
2022-07-30T16:46:31.912Z,25.80
2022-07-30T16:48:58.933Z,25.99
2022-07-30T16:51:26.011Z,26.43
2022-07-30T16:53:52.993Z,26.27
2022-07-30T16:56:20.235Z,26.35
2022-07-30T16:58:47.228Z,27.05
2022-07-30T17:01:14.484Z,26.91
2022-07-30T17:03:41.913Z,26.95
2022-07-30T17:06:09.129Z,27.07
2022-07-30T17:08:36.289Z,27.00
2022-07-30T17:11:03.910Z,27.00
2022-07-30T17:13:37.021Z,26.93
2022-07-30T17:16:04.281Z,27.48
2022-07-30T17:18:31.297Z,27.02
2022-07-30T17:20:58.501Z,27.07
2022-07-30T17:23:25.475Z,27.14
2022-07-30T17:25:52.459Z,27.19
2022-07-30T17:28:19.500Z,27.45
2022-07-30T17:30:51.373Z,26.85
2022-07-30T17:33:18.316Z,26.57
2022-07-30T17:35:45.271Z,26.86
2022-07-30T17:38:12.256Z,27.29
2022-07-30T17:40:39.220Z,27.39
2022-07-30T17:43:07.506Z,28.08
2022-07-30T17:45:36.707Z,28.05
2022-07-30T17:48:05.104Z,27.81
2022-07-30T17:50:33.305Z,27.53
2022-07-30T17:53:03.314Z,28.20
2022-07-30T17:55:31.587Z,28.40
2022-07-30T17:57:58.634Z,28.45
2022-07-30T18:00:31.075Z,28.36
2022-07-30T18:02:58.060Z,28.37
2022-07-30T18:05:25.083Z,28.15
2022-07-30T18:07:52.056Z,28.04
2022-07-30T18:10:19.125Z,28.20
2022-07-30T18:12:48.826Z,27.96
2022-07-30T18:15:20.038Z,28.26
2022-07-30T18:17:47.222Z,27.85
2022-07-30T18:20:14.983Z,28.07
2022-07-30T18:22:42.733Z,28.38
2022-07-30T18:25:18.715Z,28.19
2022-07-30T18:27:47.739Z,28.02
2022-07-30T18:30:15.308Z,28.49
2022-07-30T18:32:42.535Z,28.55
2022-07-30T18:35:14.059Z,28.20
2022-07-30T18:37:42.763Z,28.77
2022-07-30T18:40:12.297Z,28.65
2022-07-30T18:42:39.908Z,28.57
2022-07-30T18:45:08.410Z,28.81
2022-07-30T18:47:35.395Z,28.66
2022-07-30T18:50:02.703Z,29.06
2022-07-30T18:52:29.698Z,28.45
2022-07-30T18:54:56.900Z,28.71
2022-07-30T18:57:23.892Z,29.07
2022-07-30T18:59:50.989Z,28.96
2022-07-30T19:02:17.944Z,29.00
2022-07-30T19:04:45.160Z,29.25
2022-07-30T19:07:12.171Z,29.11
2022-07-30T19:09:39.238Z,28.85
2022-07-30T19:12:06.809Z,28.95
2022-07-30T19:14:34.513Z,29.17
2022-07-30T19:17:01.567Z,29.04
2022-07-30T19:19:29.952Z,29.15
2022-07-30T19:21:57.333Z,29.17
2022-07-30T19:24:27.628Z,29.37
2022-07-30T19:26:56.163Z,29.39
2022-07-30T19:29:23.300Z,29.25
2022-07-30T19:31:50.336Z,29.51
2022-07-30T19:34:17.343Z,29.37
2022-07-30T19:36:44.328Z,29.51
2022-07-30T19:39:16.133Z,29.42
2022-07-30T19:42:02.032Z,29.43
2022-07-30T19:44:29.544Z,29.54
2022-07-30T19:46:58.382Z,29.43
2022-07-30T19:49:29.584Z,29.82
2022-07-30T19:52:09.808Z,30.01
2022-07-30T19:54:44.544Z,29.71
2022-07-30T19:57:11.518Z,29.74
2022-07-30T19:59:46.461Z,29.44
2022-07-30T20:02:25.974Z,29.75
2022-07-30T20:04:54.758Z,29.72
2022-07-30T20:07:22.030Z,29.93
2022-07-30T20:09:54.736Z,30.13
2022-07-30T20:12:21.812Z,29.87
2022-07-30T20:14:51.627Z,29.81
2022-07-30T20:17:18.640Z,30.06
2022-07-30T20:19:47.764Z,29.85
2022-07-30T20:22:16.511Z,29.86
2022-07-30T20:24:45.312Z,29.99
2022-07-30T20:27:36.121Z,29.83
2022-07-30T20:29:59.391Z,29.95
2022-07-30T20:32:26.818Z,29.96
2022-07-30T20:34:53.873Z,29.91
2022-07-30T20:37:22.572Z,29.85
2022-07-30T20:39:50.120Z,29.97
2022-07-30T20:42:17.302Z,29.97
2022-07-30T20:44:49.340Z,30.01
2022-07-30T20:47:34.479Z,29.95
2022-07-30T20:50:11.213Z,30.23
2022-07-30T20:52:46.420Z,30.19
2022-07-30T20:55:16.539Z,29.84
2022-07-30T20:57:58.031Z,30.27
2022-07-30T21:00:33.274Z,30.27
2022-07-30T21:03:03.313Z,30.65
2022-07-30T21:05:30.502Z,30.33
2022-07-30T21:07:58.555Z,30.46
2022-07-30T21:10:25.612Z,30.41
2022-07-30T21:12:56.434Z,30.66
2022-07-30T21:15:36.064Z,30.72
2022-07-30T21:18:03.848Z,30.83
2022-07-30T21:20:32.190Z,31.23
2022-07-30T21:23:10.038Z,31.79
2022-07-30T21:26:01.330Z,32.40
2022-07-30T21:28:28.090Z,32.65
2022-07-30T21:33:42.293Z,32.47
2022-07-30T21:36:10.530Z,31.58
2022-07-30T21:38:42.347Z,31.44
2022-07-30T21:41:13.849Z,31.69
2022-07-30T21:43:43.865Z,32.04
2022-07-30T21:46:11.560Z,31.95
2022-07-30T21:48:39.678Z,31.84
2022-07-30T21:51:08.515Z,32.15
2022-07-30T21:53:45.020Z,32.10
2022-07-30T21:56:13.611Z,32.24
2022-07-30T21:58:41.556Z,32.69
2022-07-30T22:01:16.417Z,32.37
2022-07-30T22:04:03.922Z,32.31
2022-07-30T22:06:40.199Z,32.56
2022-07-30T22:09:18.691Z,32.31
2022-07-30T22:11:54.448Z,32.29
2022-07-30T22:14:21.393Z,32.36
2022-07-30T22:16:48.349Z,32.73
2022-07-30T22:19:15.772Z,32.22
2022-07-30T22:21:46.293Z,32.36
2022-07-30T22:24:29.187Z,32.33
2022-07-30T22:27:12.284Z,31.93
2022-07-30T22:29:42.982Z,31.95
2022-07-30T22:32:12.266Z,32.20
2022-07-30T22:34:39.369Z,32.64
2022-07-30T22:37:09.230Z,32.86
2022-07-30T22:39:50.574Z,32.58
2022-07-30T22:42:19.505Z,32.73
2022-07-30T22:44:47.508Z,33.00
2022-07-30T22:47:21.118Z,33.63
2022-07-30T22:49:55.220Z,34.39
2022-07-30T22:52:25.536Z,34.99
2022-07-30T22:54:55.442Z,35.21
2022-07-30T22:57:22.869Z,35.67
2022-07-30T22:59:58.385Z,35.51
2022-07-30T23:02:27.850Z,35.94
2022-07-30T23:04:56.332Z,36.63
2022-07-30T23:07:23.638Z,37.34
2022-07-30T23:10:12.302Z,36.99
2022-07-30T23:12:27.316Z,32.74
2022-07-30T23:12:48.485Z,36.98
2022-07-30T23:15:15.530Z,36.24
2022-07-30T23:17:43.506Z,36.68
2022-07-30T23:20:15.064Z,36.66
2022-07-30T23:22:42.048Z,37.06
2022-07-30T23:25:10.925Z,36.48
2022-07-30T23:27:39.271Z,37.48
2022-07-30T23:30:09.894Z,37.68
2022-07-30T23:32:37.961Z,36.84
2022-07-30T23:35:07.234Z,36.97
2022-07-30T23:37:53.156Z,36.07
2022-07-30T23:40:20.135Z,36.91
2022-07-30T23:42:49.978Z,37.08
2022-07-30T23:45:18.136Z,36.76
2022-07-30T23:48:01.434Z,36.77
2022-07-30T23:50:34.388Z,36.98
2022-07-30T23:53:02.908Z,37.04
2022-07-30T23:55:31.929Z,36.71
2022-07-30T23:58:00.089Z,36.51
